sensor_id;sensor_type;location;lat;lon;timestamp;temperature;humidity
69031;DHT22;56083;48.774;8.942;2022-10-15T00:00:44;13.40;99.90
69031;DHT22;56083;48.774;8.942;2022-10-15T00:03:10;13.40;99.90
69031;DHT22;56083;48.774;8.942;2022-10-15T00:05:40;13.40;99.90
69031;DHT22;56083;48.774;8.942;2022-10-15T00:08:07;13.30;99.90
69031;DHT22;56083;48.774;8.942;2022-10-15T00:10:33;13.30;99.90
69031;DHT22;56083;48.774;8.942;2022-10-15T00:12:59;13.30;99.90
69031;DHT22;56083;48.774;8.942;2022-10-15T00:15:25;13.40;99.90
69031;DHT22;56083;48.774;8.942;2022-10-15T00:17:51;13.40;99.90
69031;DHT22;56083;48.774;8.942;2022-10-15T00:20:17;13.40;99.90
69031;DHT22;56083;48.774;8.942;2022-10-15T00:22:43;13.40;99.90
69031;DHT22;56083;48.774;8.942;2022-10-15T00:25:09;13.40;99.90
69031;DHT22;56083;48.774;8.942;2022-10-15T00:27:35;13.40;99.90
69031;DHT22;56083;48.774;8.942;2022-10-15T00:30:03;13.40;99.90
69031;DHT22;56083;48.774;8.942;2022-10-15T00:32:29;13.40;99.90
69031;DHT22;56083;48.774;8.942;2022-10-15T00:34:55;13.40;99.90
69031;DHT22;56083;48.774;8.942;2022-10-15T00:37:21;13.40;99.90
69031;DHT22;56083;48.774;8.942;2022-10-15T00:39:47;13.40;99.90
69031;DHT22;56083;48.774;8.942;2022-10-15T00:42:13;13.40;99.90
69031;DHT22;56083;48.774;8.942;2022-10-15T00:44:49;13.40;99.90
69031;DHT22;56083;48.774;8.942;2022-10-15T00:47:24;13.50;99.90
69031;DHT22;56083;48.774;8.942;2022-10-15T00:50:00;13.50;99.90
69031;DHT22;56083;48.774;8.942;2022-10-15T00:55:21;13.50;99.90
69031;DHT22;56083;48.774;8.942;2022-10-15T00:57:49;13.50;99.90
69031;DHT22;56083;48.774;8.942;2022-10-15T01:00:17;13.50;99.90
69031;DHT22;56083;48.774;8.942;2022-10-15T01:02:45;13.50;99.90
69031;DHT22;56083;48.774;8.942;2022-10-15T01:05:12;13.50;99.90
69031;DHT22;56083;48.774;8.942;2022-10-15T01:07:39;13.50;99.90
69031;DHT22;56083;48.774;8.942;2022-10-15T01:10:05;13.60;99.90
69031;DHT22;56083;48.774;8.942;2022-10-15T01:12:57;13.60;99.90
69031;DHT22;56083;48.774;8.942;2022-10-15T01:15:40;13.50;99.90
69031;DHT22;56083;48.774;8.942;2022-10-15T01:18:23;13.60;99.90
69031;DHT22;56083;48.774;8.942;2022-10-15T01:21:15;13.60;99.90
69031;DHT22;56083;48.774;8.942;2022-10-15T01:37:51;13.60;99.90
69031;DHT22;56083;48.774;8.942;2022-10-15T01:43:01;13.70;99.90
69031;DHT22;56083;48.774;8.942;2022-10-15T01:45:50;13.70;99.90
69031;DHT22;56083;48.774;8.942;2022-10-15T01:48:17;13.70;99.90
69031;DHT22;56083;48.774;8.942;2022-10-15T01:50:47;13.70;99.90
69031;DHT22;56083;48.774;8.942;2022-10-15T01:53:17;13.70;99.90
69031;DHT22;56083;48.774;8.942;2022-10-15T01:55:44;13.70;99.90
69031;DHT22;56083;48.774;8.942;2022-10-15T01:58:12;13.70;99.90
69031;DHT22;56083;48.774;8.942;2022-10-15T02:00:40;13.70;99.90
69031;DHT22;56083;48.774;8.942;2022-10-15T02:03:06;13.70;99.90
69031;DHT22;56083;48.774;8.942;2022-10-15T02:05:37;13.70;99.90
69031;DHT22;56083;48.774;8.942;2022-10-15T02:08:15;13.80;99.90
69031;DHT22;56083;48.774;8.942;2022-10-15T02:10:52;13.70;99.90
69031;DHT22;56083;48.774;8.942;2022-10-15T02:13:51;13.80;99.90
69031;DHT22;56083;48.774;8.942;2022-10-15T02:16:27;13.70;99.90
69031;DHT22;56083;48.774;8.942;2022-10-15T02:19:06;13.80;99.90
69031;DHT22;56083;48.774;8.942;2022-10-15T02:21:38;13.80;99.90
69031;DHT22;56083;48.774;8.942;2022-10-15T02:26:39;13.80;99.90
69031;DHT22;56083;48.774;8.942;2022-10-15T02:29:09;13.80;99.90
69031;DHT22;56083;48.774;8.942;2022-10-15T02:31:36;13.80;99.90
69031;DHT22;56083;48.774;8.942;2022-10-15T02:34:09;13.80;99.90
69031;DHT22;56083;48.774;8.942;2022-10-15T02:36:38;13.80;99.90
69031;DHT22;56083;48.774;8.942;2022-10-15T02:39:06;13.80;99.90
69031;DHT22;56083;48.774;8.942;2022-10-15T02:41:34;13.80;99.90
69031;DHT22;56083;48.774;8.942;2022-10-15T02:44:03;13.80;99.90
69031;DHT22;56083;48.774;8.942;2022-10-15T02:46:29;13.80;99.90
69031;DHT22;56083;48.774;8.942;2022-10-15T02:48:55;13.80;99.90
69031;DHT22;56083;48.774;8.942;2022-10-15T02:51:20;13.80;99.90
69031;DHT22;56083;48.774;8.942;2022-10-15T02:53:46;13.80;99.90
69031;DHT22;56083;48.774;8.942;2022-10-15T02:56:12;13.90;99.90
69031;DHT22;56083;48.774;8.942;2022-10-15T02:58:37;13.80;99.90
69031;DHT22;56083;48.774;8.942;2022-10-15T03:01:04;13.90;99.90
69031;DHT22;56083;48.774;8.942;2022-10-15T03:03:29;13.80;99.90
69031;DHT22;56083;48.774;8.942;2022-10-15T03:05:55;13.90;99.90
69031;DHT22;56083;48.774;8.942;2022-10-15T03:08:21;13.90;99.90
69031;DHT22;56083;48.774;8.942;2022-10-15T03:10:46;13.80;99.90
69031;DHT22;56083;48.774;8.942;2022-10-15T03:13:13;13.90;99.90
69031;DHT22;56083;48.774;8.942;2022-10-15T03:15:38;13.90;99.90
69031;DHT22;56083;48.774;8.942;2022-10-15T03:18:07;14.00;99.90
69031;DHT22;56083;48.774;8.942;2022-10-15T03:20:32;14.00;99.90
69031;DHT22;56083;48.774;8.942;2022-10-15T03:22:58;14.00;99.90
69031;DHT22;56083;48.774;8.942;2022-10-15T03:25:24;14.00;99.90
69031;DHT22;56083;48.774;8.942;2022-10-15T03:27:50;14.00;99.90
69031;DHT22;56083;48.774;8.942;2022-10-15T03:30:17;14.00;99.90
69031;DHT22;56083;48.774;8.942;2022-10-15T03:32:43;14.00;99.90
69031;DHT22;56083;48.774;8.942;2022-10-15T03:35:09;14.00;99.90
69031;DHT22;56083;48.774;8.942;2022-10-15T03:37:35;14.00;99.90
69031;DHT22;56083;48.774;8.942;2022-10-15T03:40:00;14.00;99.90
69031;DHT22;56083;48.774;8.942;2022-10-15T03:42:26;14.10;99.90
69031;DHT22;56083;48.774;8.942;2022-10-15T03:44:52;14.10;99.90
69031;DHT22;56083;48.774;8.942;2022-10-15T03:47:17;14.10;99.90
69031;DHT22;56083;48.774;8.942;2022-10-15T03:49:43;14.20;99.90
69031;DHT22;56083;48.774;8.942;2022-10-15T03:52:09;14.20;99.90
69031;DHT22;56083;48.774;8.942;2022-10-15T03:54:34;14.30;99.90
69031;DHT22;56083;48.774;8.942;2022-10-15T03:57:00;14.30;99.90
69031;DHT22;56083;48.774;8.942;2022-10-15T03:59:25;14.30;99.90
69031;DHT22;56083;48.774;8.942;2022-10-15T04:01:51;14.20;99.90
69031;DHT22;56083;48.774;8.942;2022-10-15T04:04:17;14.20;99.90
69031;DHT22;56083;48.774;8.942;2022-10-15T04:06:43;14.30;99.90
69031;DHT22;56083;48.774;8.942;2022-10-15T04:09:12;14.30;99.90
69031;DHT22;56083;48.774;8.942;2022-10-15T04:11:38;14.30;99.90
69031;DHT22;56083;48.774;8.942;2022-10-15T04:14:04;14.30;99.90
69031;DHT22;56083;48.774;8.942;2022-10-15T04:16:30;14.30;99.90
69031;DHT22;56083;48.774;8.942;2022-10-15T04:18:56;14.30;99.90
69031;DHT22;56083;48.774;8.942;2022-10-15T04:21:26;14.30;99.90
69031;DHT22;56083;48.774;8.942;2022-10-15T04:23:52;14.30;99.90
69031;DHT22;56083;48.774;8.942;2022-10-15T04:26:17;14.30;99.90
69031;DHT22;56083;48.774;8.942;2022-10-15T04:28:43;14.30;99.90
69031;DHT22;56083;48.774;8.942;2022-10-15T04:31:08;14.30;99.90
69031;DHT22;56083;48.774;8.942;2022-10-15T04:33:35;14.30;99.90
69031;DHT22;56083;48.774;8.942;2022-10-15T04:36:03;14.30;99.90
69031;DHT22;56083;48.774;8.942;2022-10-15T04:38:29;14.30;99.90
69031;DHT22;56083;48.774;8.942;2022-10-15T04:41:05;14.30;99.90
69031;DHT22;56083;48.774;8.942;2022-10-15T04:43:31;14.30;99.90
69031;DHT22;56083;48.774;8.942;2022-10-15T04:45:58;14.30;99.90
69031;DHT22;56083;48.774;8.942;2022-10-15T04:48:26;14.30;99.90
69031;DHT22;56083;48.774;8.942;2022-10-15T04:50:52;14.30;99.90
69031;DHT22;56083;48.774;8.942;2022-10-15T04:53:18;14.30;99.90
69031;DHT22;56083;48.774;8.942;2022-10-15T04:55:44;14.30;99.90
69031;DHT22;56083;48.774;8.942;2022-10-15T04:58:09;14.30;99.90
69031;DHT22;56083;48.774;8.942;2022-10-15T05:00:36;14.30;99.90
69031;DHT22;56083;48.774;8.942;2022-10-15T05:03:04;14.40;99.90
69031;DHT22;56083;48.774;8.942;2022-10-15T05:05:30;14.40;99.90
69031;DHT22;56083;48.774;8.942;2022-10-15T05:08:01;14.40;99.90
69031;DHT22;56083;48.774;8.942;2022-10-15T05:10:28;14.30;99.90
69031;DHT22;56083;48.774;8.942;2022-10-15T05:12:54;14.30;99.90
69031;DHT22;56083;48.774;8.942;2022-10-15T05:15:19;14.30;99.90
69031;DHT22;56083;48.774;8.942;2022-10-15T05:17:46;14.20;99.90
69031;DHT22;56083;48.774;8.942;2022-10-15T05:20:12;14.20;99.90
69031;DHT22;56083;48.774;8.942;2022-10-15T05:22:37;14.20;99.90
69031;DHT22;56083;48.774;8.942;2022-10-15T05:25:03;14.10;99.90
69031;DHT22;56083;48.774;8.942;2022-10-15T05:27:29;14.10;99.90
69031;DHT22;56083;48.774;8.942;2022-10-15T05:29:55;14.10;99.90
69031;DHT22;56083;48.774;8.942;2022-10-15T05:32:20;14.10;99.90
69031;DHT22;56083;48.774;8.942;2022-10-15T05:34:46;14.10;99.90
69031;DHT22;56083;48.774;8.942;2022-10-15T05:37:12;14.10;99.90
69031;DHT22;56083;48.774;8.942;2022-10-15T05:39:37;14.10;99.90
69031;DHT22;56083;48.774;8.942;2022-10-15T05:42:03;14.10;99.90
69031;DHT22;56083;48.774;8.942;2022-10-15T05:44:29;14.10;99.90
69031;DHT22;56083;48.774;8.942;2022-10-15T05:46:54;14.10;99.90
69031;DHT22;56083;48.774;8.942;2022-10-15T05:49:20;14.10;99.90
69031;DHT22;56083;48.774;8.942;2022-10-15T05:51:46;14.10;99.90
69031;DHT22;56083;48.774;8.942;2022-10-15T05:54:11;14.10;99.90
69031;DHT22;56083;48.774;8.942;2022-10-15T05:56:39;14.10;99.90
69031;DHT22;56083;48.774;8.942;2022-10-15T05:59:05;14.10;99.90
69031;DHT22;56083;48.774;8.942;2022-10-15T06:01:30;14.10;99.90
69031;DHT22;56083;48.774;8.942;2022-10-15T06:03:56;14.20;99.90
69031;DHT22;56083;48.774;8.942;2022-10-15T06:06:24;14.20;99.90
69031;DHT22;56083;48.774;8.942;2022-10-15T06:08:51;14.20;99.90
69031;DHT22;56083;48.774;8.942;2022-10-15T06:11:18;14.20;99.90
69031;DHT22;56083;48.774;8.942;2022-10-15T06:13:44;14.20;99.90
69031;DHT22;56083;48.774;8.942;2022-10-15T06:16:11;14.20;99.90
69031;DHT22;56083;48.774;8.942;2022-10-15T06:18:38;14.20;99.90
69031;DHT22;56083;48.774;8.942;2022-10-15T06:21:05;14.20;99.90
69031;DHT22;56083;48.774;8.942;2022-10-15T06:23:32;14.20;99.90
69031;DHT22;56083;48.774;8.942;2022-10-15T06:26:06;14.20;99.90
69031;DHT22;56083;48.774;8.942;2022-10-15T06:28:32;14.20;99.90
69031;DHT22;56083;48.774;8.942;2022-10-15T06:30:58;14.20;99.90
69031;DHT22;56083;48.774;8.942;2022-10-15T06:33:24;14.20;99.90
69031;DHT22;56083;48.774;8.942;2022-10-15T06:35:50;14.20;99.90
69031;DHT22;56083;48.774;8.942;2022-10-15T06:38:16;14.20;99.90
69031;DHT22;56083;48.774;8.942;2022-10-15T06:40:41;14.20;99.90
69031;DHT22;56083;48.774;8.942;2022-10-15T06:43:09;14.20;99.90
69031;DHT22;56083;48.774;8.942;2022-10-15T06:45:40;14.10;99.90
69031;DHT22;56083;48.774;8.942;2022-10-15T06:48:07;14.20;99.90
69031;DHT22;56083;48.774;8.942;2022-10-15T06:50:34;14.20;99.90
69031;DHT22;56083;48.774;8.942;2022-10-15T06:53:01;14.20;99.90
69031;DHT22;56083;48.774;8.942;2022-10-15T06:55:27;14.20;99.90
69031;DHT22;56083;48.774;8.942;2022-10-15T06:57:54;14.20;99.90
69031;DHT22;56083;48.774;8.942;2022-10-15T07:00:21;14.20;99.90
69031;DHT22;56083;48.774;8.942;2022-10-15T07:02:46;14.30;99.90
69031;DHT22;56083;48.774;8.942;2022-10-15T07:05:12;14.30;99.90
69031;DHT22;56083;48.774;8.942;2022-10-15T07:07:38;14.30;99.90
69031;DHT22;56083;48.774;8.942;2022-10-15T07:10:04;14.30;99.90
69031;DHT22;56083;48.774;8.942;2022-10-15T07:12:30;14.30;99.90
69031;DHT22;56083;48.774;8.942;2022-10-15T07:14:55;14.30;99.90
69031;DHT22;56083;48.774;8.942;2022-10-15T07:17:21;14.30;99.90
69031;DHT22;56083;48.774;8.942;2022-10-15T07:19:46;14.40;99.90
69031;DHT22;56083;48.774;8.942;2022-10-15T07:22:12;14.40;99.90
69031;DHT22;56083;48.774;8.942;2022-10-15T07:24:38;14.50;99.90
69031;DHT22;56083;48.774;8.942;2022-10-15T07:27:04;14.50;99.90
69031;DHT22;56083;48.774;8.942;2022-10-15T07:29:30;14.50;99.90
69031;DHT22;56083;48.774;8.942;2022-10-15T07:31:56;14.60;99.90
69031;DHT22;56083;48.774;8.942;2022-10-15T07:34:22;14.60;99.90
69031;DHT22;56083;48.774;8.942;2022-10-15T07:36:48;14.70;99.90
69031;DHT22;56083;48.774;8.942;2022-10-15T07:39:14;14.70;99.90
69031;DHT22;56083;48.774;8.942;2022-10-15T07:41:42;14.70;99.90
69031;DHT22;56083;48.774;8.942;2022-10-15T07:44:10;14.70;99.90
69031;DHT22;56083;48.774;8.942;2022-10-15T07:46:36;14.80;99.90
69031;DHT22;56083;48.774;8.942;2022-10-15T07:49:02;14.70;99.90
69031;DHT22;56083;48.774;8.942;2022-10-15T07:51:28;14.80;99.90
69031;DHT22;56083;48.774;8.942;2022-10-15T07:53:54;14.80;99.90
69031;DHT22;56083;48.774;8.942;2022-10-15T07:56:24;14.80;99.90
69031;DHT22;56083;48.774;8.942;2022-10-15T07:59:07;14.70;99.90
69031;DHT22;56083;48.774;8.942;2022-10-15T08:01:33;14.70;99.90
69031;DHT22;56083;48.774;8.942;2022-10-15T08:03:59;14.70;99.90
69031;DHT22;56083;48.774;8.942;2022-10-15T08:06:24;14.70;99.90
69031;DHT22;56083;48.774;8.942;2022-10-15T08:08:50;14.70;99.90
69031;DHT22;56083;48.774;8.942;2022-10-15T08:11:16;14.80;99.90
69031;DHT22;56083;48.774;8.942;2022-10-15T08:13:42;14.80;99.90
69031;DHT22;56083;48.774;8.942;2022-10-15T08:16:10;14.90;99.90
69031;DHT22;56083;48.774;8.942;2022-10-15T08:18:36;15.00;99.90
69031;DHT22;56083;48.774;8.942;2022-10-15T08:21:02;15.10;99.90
69031;DHT22;56083;48.774;8.942;2022-10-15T08:23:28;15.20;99.90
69031;DHT22;56083;48.774;8.942;2022-10-15T08:25:57;15.40;99.90
69031;DHT22;56083;48.774;8.942;2022-10-15T08:28:23;15.50;99.90
69031;DHT22;56083;48.774;8.942;2022-10-15T08:30:48;15.60;99.90
69031;DHT22;56083;48.774;8.942;2022-10-15T08:33:14;15.70;99.90
69031;DHT22;56083;48.774;8.942;2022-10-15T08:35:41;15.80;99.90
69031;DHT22;56083;48.774;8.942;2022-10-15T08:38:11;15.90;99.90
69031;DHT22;56083;48.774;8.942;2022-10-15T08:40:37;15.90;99.90
69031;DHT22;56083;48.774;8.942;2022-10-15T08:43:17;16.00;99.90
69031;DHT22;56083;48.774;8.942;2022-10-15T08:45:45;16.00;99.90
69031;DHT22;56083;48.774;8.942;2022-10-15T08:48:19;16.00;99.90
69031;DHT22;56083;48.774;8.942;2022-10-15T08:51:09;16.00;99.90
69031;DHT22;56083;48.774;8.942;2022-10-15T08:53:44;16.00;99.90
69031;DHT22;56083;48.774;8.942;2022-10-15T08:56:26;16.00;99.90
69031;DHT22;56083;48.774;8.942;2022-10-15T09:01:39;15.90;99.90
69031;DHT22;56083;48.774;8.942;2022-10-15T09:07:21;15.80;99.90
69031;DHT22;56083;48.774;8.942;2022-10-15T09:10:00;15.80;99.90
69031;DHT22;56083;48.774;8.942;2022-10-15T09:15:16;15.80;99.90
69031;DHT22;56083;48.774;8.942;2022-10-15T09:17:47;15.80;99.90
69031;DHT22;56083;48.774;8.942;2022-10-15T09:20:17;15.80;99.90
69031;DHT22;56083;48.774;8.942;2022-10-15T09:22:44;15.80;99.90
69031;DHT22;56083;48.774;8.942;2022-10-15T09:25:14;15.90;99.90
69031;DHT22;56083;48.774;8.942;2022-10-15T09:27:41;16.20;99.90
69031;DHT22;56083;48.774;8.942;2022-10-15T09:30:30;17.00;99.90
69031;DHT22;56083;48.774;8.942;2022-10-15T09:36:07;18.60;99.90
69031;DHT22;56083;48.774;8.942;2022-10-15T09:42:01;19.00;99.90
69031;DHT22;56083;48.774;8.942;2022-10-15T09:44:35;19.50;99.90
69031;DHT22;56083;48.774;8.942;2022-10-15T09:47:01;20.80;99.90
69031;DHT22;56083;48.774;8.942;2022-10-15T09:49:27;21.70;99.90
69031;DHT22;56083;48.774;8.942;2022-10-15T09:52:29;21.80;99.90
69031;DHT22;56083;48.774;8.942;2022-10-15T09:57:55;22.80;99.90
69031;DHT22;56083;48.774;8.942;2022-10-15T10:00:23;23.10;99.90
69031;DHT22;56083;48.774;8.942;2022-10-15T10:03:06;24.10;99.90
69031;DHT22;56083;48.774;8.942;2022-10-15T10:05:38;24.80;99.90
69031;DHT22;56083;48.774;8.942;2022-10-15T10:08:19;25.00;99.90
69031;DHT22;56083;48.774;8.942;2022-10-15T10:10:53;24.80;99.90
69031;DHT22;56083;48.774;8.942;2022-10-15T10:13:33;24.10;99.90
69031;DHT22;56083;48.774;8.942;2022-10-15T10:16:04;24.50;99.90
69031;DHT22;56083;48.774;8.942;2022-10-15T10:18:30;25.00;99.90
69031;DHT22;56083;48.774;8.942;2022-10-15T10:21:00;25.20;99.90
69031;DHT22;56083;48.774;8.942;2022-10-15T10:23:37;25.90;99.90
69031;DHT22;56083;48.774;8.942;2022-10-15T10:26:05;26.10;99.90
69031;DHT22;56083;48.774;8.942;2022-10-15T10:31:13;26.10;99.90
69031;DHT22;56083;48.774;8.942;2022-10-15T10:36:28;26.90;99.90
69031;DHT22;56083;48.774;8.942;2022-10-15T10:39:20;26.10;99.90
69031;DHT22;56083;48.774;8.942;2022-10-15T10:42:01;24.60;99.90
69031;DHT22;56083;48.774;8.942;2022-10-15T10:44:42;23.40;99.90
69031;DHT22;56083;48.774;8.942;2022-10-15T10:47:19;21.50;99.90
69031;DHT22;56083;48.774;8.942;2022-10-15T10:49:50;20.70;99.90
69031;DHT22;56083;48.774;8.942;2022-10-15T11:02:52;20.20;99.90
69031;DHT22;56083;48.774;8.942;2022-10-15T11:05:25;20.00;99.90
69031;DHT22;56083;48.774;8.942;2022-10-15T11:08:03;20.20;99.90
69031;DHT22;56083;48.774;8.942;2022-10-15T11:10:57;20.20;99.90
69031;DHT22;56083;48.774;8.942;2022-10-15T11:13:47;19.90;99.90
69031;DHT22;56083;48.774;8.942;2022-10-15T11:22:09;19.80;99.90
69031;DHT22;56083;48.774;8.942;2022-10-15T11:52:15;20.90;99.90
69031;DHT22;56083;48.774;8.942;2022-10-15T11:57:44;20.10;99.90
69031;DHT22;56083;48.774;8.942;2022-10-15T12:00:31;19.70;99.90
69031;DHT22;56083;48.774;8.942;2022-10-15T12:03:34;19.30;99.90
69031;DHT22;56083;48.774;8.942;2022-10-15T12:06:06;19.10;99.90
69031;DHT22;56083;48.774;8.942;2022-10-15T12:08:35;18.80;99.90
69031;DHT22;56083;48.774;8.942;2022-10-15T12:16:52;18.20;99.90
69031;DHT22;56083;48.774;8.942;2022-10-15T12:19:15;18.20;99.90
69031;DHT22;56083;48.774;8.942;2022-10-15T12:29:52;18.20;99.90
69031;DHT22;56083;48.774;8.942;2022-10-15T12:32:41;18.00;99.90
69031;DHT22;56083;48.774;8.942;2022-10-15T12:37:41;17.80;99.90
69031;DHT22;56083;48.774;8.942;2022-10-15T12:43:10;17.70;99.90
69031;DHT22;56083;48.774;8.942;2022-10-15T12:45:39;17.60;99.90
69031;DHT22;56083;48.774;8.942;2022-10-15T12:50:40;17.50;99.90
69031;DHT22;56083;48.774;8.942;2022-10-15T13:04:09;17.20;99.90
69031;DHT22;56083;48.774;8.942;2022-10-15T13:06:37;17.20;99.90
69031;DHT22;56083;48.774;8.942;2022-10-15T13:09:21;17.10;99.90
69031;DHT22;56083;48.774;8.942;2022-10-15T13:11:51;17.00;99.90
69031;DHT22;56083;48.774;8.942;2022-10-15T13:16:59;16.50;99.90
69031;DHT22;56083;48.774;8.942;2022-10-15T13:19:29;16.20;99.90
69031;DHT22;56083;48.774;8.942;2022-10-15T13:21:58;16.00;99.90
69031;DHT22;56083;48.774;8.942;2022-10-15T13:24:26;15.80;99.90
69031;DHT22;56083;48.774;8.942;2022-10-15T13:26:54;15.70;99.90
69031;DHT22;56083;48.774;8.942;2022-10-15T13:29:25;15.50;99.90
69031;DHT22;56083;48.774;8.942;2022-10-15T13:31:54;15.50;99.90
69031;DHT22;56083;48.774;8.942;2022-10-15T13:34:28;15.40;99.90
69031;DHT22;56083;48.774;8.942;2022-10-15T13:36:56;15.40;99.90
69031;DHT22;56083;48.774;8.942;2022-10-15T13:39:32;15.40;99.90
69031;DHT22;56083;48.774;8.942;2022-10-15T13:42:19;15.30;99.90
69031;DHT22;56083;48.774;8.942;2022-10-15T13:45:03;15.30;99.90
69031;DHT22;56083;48.774;8.942;2022-10-15T13:47:38;15.30;99.90
69031;DHT22;56083;48.774;8.942;2022-10-15T13:55:53;15.40;99.90
69031;DHT22;56083;48.774;8.942;2022-10-15T13:58:33;15.40;99.90
69031;DHT22;56083;48.774;8.942;2022-10-15T14:01:00;15.40;99.90
69031;DHT22;56083;48.774;8.942;2022-10-15T14:03:32;15.40;99.90
69031;DHT22;56083;48.774;8.942;2022-10-15T14:06:16;15.40;99.90
69031;DHT22;56083;48.774;8.942;2022-10-15T14:08:47;15.40;99.90
69031;DHT22;56083;48.774;8.942;2022-10-15T14:11:14;15.50;99.90
69031;DHT22;56083;48.774;8.942;2022-10-15T14:13:58;15.50;99.90
69031;DHT22;56083;48.774;8.942;2022-10-15T14:16:28;15.50;99.90
69031;DHT22;56083;48.774;8.942;2022-10-15T14:21:30;15.50;99.90
69031;DHT22;56083;48.774;8.942;2022-10-15T14:26:47;15.50;99.90
69031;DHT22;56083;48.774;8.942;2022-10-15T14:29:24;15.60;99.90
69031;DHT22;56083;48.774;8.942;2022-10-15T14:31:50;15.70;99.90
69031;DHT22;56083;48.774;8.942;2022-10-15T14:34:35;15.70;99.90
69031;DHT22;56083;48.774;8.942;2022-10-15T14:37:28;15.80;99.90
69031;DHT22;56083;48.774;8.942;2022-10-15T14:42:31;16.50;99.90
69031;DHT22;56083;48.774;8.942;2022-10-15T14:45:31;16.60;99.90
69031;DHT22;56083;48.774;8.942;2022-10-15T14:48:06;16.60;99.90
69031;DHT22;56083;48.774;8.942;2022-10-15T14:50:34;16.60;99.90
69031;DHT22;56083;48.774;8.942;2022-10-15T14:53:06;16.80;99.90
69031;DHT22;56083;48.774;8.942;2022-10-15T14:55:36;16.80;99.90
69031;DHT22;56083;48.774;8.942;2022-10-15T14:58:16;17.00;99.90
69031;DHT22;56083;48.774;8.942;2022-10-15T15:00:44;17.10;99.90
69031;DHT22;56083;48.774;8.942;2022-10-15T15:03:17;17.30;99.90
69031;DHT22;56083;48.774;8.942;2022-10-15T15:05:46;17.50;99.90
69031;DHT22;56083;48.774;8.942;2022-10-15T15:08:12;18.30;99.90
69031;DHT22;56083;48.774;8.942;2022-10-15T15:10:38;19.30;99.90
69031;DHT22;56083;48.774;8.942;2022-10-15T15:13:04;19.80;99.90
69031;DHT22;56083;48.774;8.942;2022-10-15T15:15:30;20.60;99.90
69031;DHT22;56083;48.774;8.942;2022-10-15T15:17:55;21.20;99.90
69031;DHT22;56083;48.774;8.942;2022-10-15T15:20:22;21.40;99.90
69031;DHT22;56083;48.774;8.942;2022-10-15T15:22:50;21.60;99.90
69031;DHT22;56083;48.774;8.942;2022-10-15T15:25:26;21.50;99.90
69031;DHT22;56083;48.774;8.942;2022-10-15T15:27:53;21.50;99.90
69031;DHT22;56083;48.774;8.942;2022-10-15T15:30:21;21.40;99.90
69031;DHT22;56083;48.774;8.942;2022-10-15T15:32:48;21.40;99.90
69031;DHT22;56083;48.774;8.942;2022-10-15T15:35:37;21.30;99.90
69031;DHT22;56083;48.774;8.942;2022-10-15T15:38:07;20.30;99.90
69031;DHT22;56083;48.774;8.942;2022-10-15T15:40:35;19.30;99.90
69031;DHT22;56083;48.774;8.942;2022-10-15T15:43:01;18.70;99.90
69031;DHT22;56083;48.774;8.942;2022-10-15T15:45:27;18.70;99.90
69031;DHT22;56083;48.774;8.942;2022-10-15T15:47:54;19.00;99.90
69031;DHT22;56083;48.774;8.942;2022-10-15T15:50:23;19.30;99.90
69031;DHT22;56083;48.774;8.942;2022-10-15T15:52:49;19.30;99.90
69031;DHT22;56083;48.774;8.942;2022-10-15T15:55:14;18.70;99.90
69031;DHT22;56083;48.774;8.942;2022-10-15T15:57:40;18.30;99.90
69031;DHT22;56083;48.774;8.942;2022-10-15T16:00:08;17.80;99.90
69031;DHT22;56083;48.774;8.942;2022-10-15T16:02:35;17.50;99.90
69031;DHT22;56083;48.774;8.942;2022-10-15T16:05:01;17.30;99.90
69031;DHT22;56083;48.774;8.942;2022-10-15T16:07:27;17.10;99.90
69031;DHT22;56083;48.774;8.942;2022-10-15T16:09:53;16.90;99.90
69031;DHT22;56083;48.774;8.942;2022-10-15T16:12:19;16.80;99.90
69031;DHT22;56083;48.774;8.942;2022-10-15T16:14:44;16.60;99.90
69031;DHT22;56083;48.774;8.942;2022-10-15T16:17:10;16.50;99.90
69031;DHT22;56083;48.774;8.942;2022-10-15T16:19:36;16.40;99.90
69031;DHT22;56083;48.774;8.942;2022-10-15T16:22:01;16.30;99.90
69031;DHT22;56083;48.774;8.942;2022-10-15T16:24:27;16.30;99.90
69031;DHT22;56083;48.774;8.942;2022-10-15T16:26:53;16.20;99.90
69031;DHT22;56083;48.774;8.942;2022-10-15T16:29:19;16.20;99.90
69031;DHT22;56083;48.774;8.942;2022-10-15T16:31:44;16.20;99.90
69031;DHT22;56083;48.774;8.942;2022-10-15T16:34:10;16.10;99.90
69031;DHT22;56083;48.774;8.942;2022-10-15T16:36:36;16.10;99.90
69031;DHT22;56083;48.774;8.942;2022-10-15T16:39:02;16.10;99.90
69031;DHT22;56083;48.774;8.942;2022-10-15T16:41:28;16.10;99.90
69031;DHT22;56083;48.774;8.942;2022-10-15T16:43:53;16.10;99.90
69031;DHT22;56083;48.774;8.942;2022-10-15T16:46:19;16.10;99.90
69031;DHT22;56083;48.774;8.942;2022-10-15T16:48:51;16.00;99.90
69031;DHT22;56083;48.774;8.942;2022-10-15T16:51:17;15.90;99.90
69031;DHT22;56083;48.774;8.942;2022-10-15T16:53:44;15.80;99.90
69031;DHT22;56083;48.774;8.942;2022-10-15T16:56:14;15.70;99.90
69031;DHT22;56083;48.774;8.942;2022-10-15T16:58:40;15.70;99.90
69031;DHT22;56083;48.774;8.942;2022-10-15T17:01:09;15.60;99.90
69031;DHT22;56083;48.774;8.942;2022-10-15T17:03:36;15.50;99.90
69031;DHT22;56083;48.774;8.942;2022-10-15T17:06:05;15.50;99.90
69031;DHT22;56083;48.774;8.942;2022-10-15T17:11:11;15.50;99.90
69031;DHT22;56083;48.774;8.942;2022-10-15T17:13:38;15.60;99.90
69031;DHT22;56083;48.774;8.942;2022-10-15T17:16:12;15.60;99.90
69031;DHT22;56083;48.774;8.942;2022-10-15T17:18:39;15.60;99.90
69031;DHT22;56083;48.774;8.942;2022-10-15T17:21:07;15.60;99.90
69031;DHT22;56083;48.774;8.942;2022-10-15T17:23:34;15.60;99.90
69031;DHT22;56083;48.774;8.942;2022-10-15T17:26:09;15.60;99.90
69031;DHT22;56083;48.774;8.942;2022-10-15T17:28:35;15.60;99.90
69031;DHT22;56083;48.774;8.942;2022-10-15T17:31:06;15.70;99.90
69031;DHT22;56083;48.774;8.942;2022-10-15T17:33:34;15.70;99.90
69031;DHT22;56083;48.774;8.942;2022-10-15T17:36:07;15.60;99.90
69031;DHT22;56083;48.774;8.942;2022-10-15T17:38:33;15.60;99.90
69031;DHT22;56083;48.774;8.942;2022-10-15T17:41:06;15.60;99.90
69031;DHT22;56083;48.774;8.942;2022-10-15T17:43:32;15.50;99.90
69031;DHT22;56083;48.774;8.942;2022-10-15T17:46:02;15.50;99.90
69031;DHT22;56083;48.774;8.942;2022-10-15T17:48:28;15.50;99.90
69031;DHT22;56083;48.774;8.942;2022-10-15T17:50:54;15.50;99.90
69031;DHT22;56083;48.774;8.942;2022-10-15T17:53:21;15.40;99.90
69031;DHT22;56083;48.774;8.942;2022-10-15T17:55:46;15.40;99.90
69031;DHT22;56083;48.774;8.942;2022-10-15T17:58:12;15.40;99.90
69031;DHT22;56083;48.774;8.942;2022-10-15T18:00:40;15.40;99.90
69031;DHT22;56083;48.774;8.942;2022-10-15T18:03:05;15.40;99.90
69031;DHT22;56083;48.774;8.942;2022-10-15T18:05:31;15.40;99.90
69031;DHT22;56083;48.774;8.942;2022-10-15T18:07:57;15.40;99.90